createdAt,value
2023-03-15T00:02:10.911Z,10.90
2023-03-15T00:04:38.669Z,10.80
2023-03-15T00:07:06.443Z,10.80
2023-03-15T00:09:34.158Z,10.70
2023-03-15T00:12:02.586Z,10.70
2023-03-15T00:14:31.788Z,10.60
2023-03-15T00:16:59.452Z,10.70
2023-03-15T00:19:27.241Z,10.70
2023-03-15T00:21:55.014Z,10.80
2023-03-15T00:24:25.008Z,10.90
2023-03-15T00:26:52.985Z,10.80
2023-03-15T00:29:20.997Z,10.70
2023-03-15T00:31:48.902Z,10.80
2023-03-15T00:34:19.111Z,11.10
2023-03-15T00:36:46.884Z,11.00
2023-03-15T00:39:15.493Z,11.00
2023-03-15T00:41:45.852Z,10.90
2023-03-15T00:44:13.894Z,10.90
2023-03-15T00:46:41.681Z,10.80
2023-03-15T00:49:09.575Z,10.70
2023-03-15T00:51:37.761Z,10.70
2023-03-15T00:54:05.562Z,10.80
2023-03-15T00:56:33.320Z,10.70
2023-03-15T00:59:02.163Z,10.70
2023-03-15T01:01:31.460Z,10.60
2023-03-15T01:03:59.180Z,10.70
2023-03-15T01:06:29.315Z,10.90
2023-03-15T01:08:57.469Z,11.00
2023-03-15T01:11:27.650Z,10.90
2023-03-15T01:13:58.122Z,10.70
2023-03-15T01:16:27.201Z,10.70
2023-03-15T01:18:55.778Z,10.70
2023-03-15T01:21:24.356Z,10.70
2023-03-15T01:23:53.050Z,10.60
2023-03-15T01:26:22.610Z,10.60
2023-03-15T01:28:50.853Z,10.40
2023-03-15T01:31:26.054Z,10.30
2023-03-15T01:33:53.952Z,10.30
2023-03-15T01:36:22.173Z,10.30
2023-03-15T01:38:51.071Z,10.30
2023-03-15T01:41:22.245Z,10.30
2023-03-15T01:43:49.996Z,10.30
2023-03-15T01:46:29.862Z,10.30
2023-03-15T01:49:08.353Z,10.20
2023-03-15T01:52:00.238Z,10.10
2023-03-15T01:55:02.428Z,10.30
2023-03-15T01:57:56.622Z,10.20
2023-03-15T02:00:27.766Z,10.20
2023-03-15T02:03:18.844Z,10.00
2023-03-15T02:05:57.002Z,9.80
2023-03-15T02:08:45.626Z,9.70
2023-03-15T02:11:14.978Z,9.70
2023-03-15T02:13:45.158Z,9.60
2023-03-15T02:16:13.344Z,9.50
2023-03-15T02:18:47.060Z,9.50
2023-03-15T02:21:35.810Z,9.60
2023-03-15T02:24:12.368Z,9.50
2023-03-15T02:26:45.582Z,9.60
2023-03-15T02:29:13.610Z,9.60
2023-03-15T02:31:42.028Z,9.70
2023-03-15T02:34:09.896Z,9.80
2023-03-15T02:36:38.031Z,9.80
2023-03-15T02:39:18.233Z,9.70
2023-03-15T02:41:53.822Z,9.60
2023-03-15T02:44:24.551Z,9.30
2023-03-15T02:46:56.090Z,9.60
2023-03-15T02:49:28.291Z,9.60
2023-03-15T02:51:56.061Z,9.60
2023-03-15T02:54:23.787Z,9.60
2023-03-15T02:56:53.545Z,9.70
2023-03-15T02:59:21.533Z,9.70
2023-03-15T03:01:49.954Z,9.60
2023-03-15T03:04:19.144Z,9.60
2023-03-15T03:06:47.163Z,9.60
2023-03-15T03:09:19.815Z,9.60
2023-03-15T03:11:47.606Z,9.60
2023-03-15T03:14:15.391Z,9.50
2023-03-15T03:16:43.704Z,9.30
2023-03-15T03:19:12.773Z,9.30
2023-03-15T03:21:45.103Z,9.30
2023-03-15T03:24:16.385Z,9.30
2023-03-15T03:26:46.296Z,9.20
2023-03-15T03:29:18.224Z,9.20
2023-03-15T03:31:48.775Z,9.30
2023-03-15T03:34:16.975Z,9.20
2023-03-15T03:36:45.258Z,9.20
2023-03-15T03:39:16.286Z,9.10
2023-03-15T03:41:45.507Z,8.80
2023-03-15T03:44:14.129Z,8.70
2023-03-15T03:46:43.086Z,8.60
2023-03-15T03:49:10.911Z,8.40
2023-03-15T03:51:38.824Z,8.40
2023-03-15T03:54:06.601Z,8.30
2023-03-15T03:56:34.904Z,8.30
2023-03-15T03:59:02.707Z,8.30
2023-03-15T04:01:43.382Z,8.30
2023-03-15T04:04:14.387Z,8.30
2023-03-15T04:06:46.242Z,8.30
2023-03-15T04:09:16.961Z,8.20
2023-03-15T04:11:47.255Z,8.10
2023-03-15T04:14:16.770Z,8.20
2023-03-15T04:16:46.841Z,8.30
2023-03-15T04:19:17.417Z,8.50
2023-03-15T04:21:47.756Z,8.70
2023-03-15T04:24:24.465Z,8.80
2023-03-15T04:27:14.911Z,8.70
2023-03-15T04:30:05.715Z,8.70
2023-03-15T04:32:36.276Z,8.80
2023-03-15T04:35:17.799Z,8.80
2023-03-15T04:37:59.168Z,8.80
2023-03-15T04:40:44.826Z,8.70
2023-03-15T04:43:35.685Z,8.80
2023-03-15T04:46:23.899Z,8.60
2023-03-15T04:49:10.477Z,8.70
2023-03-15T04:52:10.384Z,8.50
2023-03-15T04:54:58.307Z,8.50
2023-03-15T04:57:52.012Z,8.50
2023-03-15T05:00:38.228Z,8.40
2023-03-15T05:03:08.984Z,8.40
2023-03-15T05:05:58.753Z,8.40
2023-03-15T05:08:55.536Z,8.50
2023-03-15T05:11:32.406Z,8.40
2023-03-15T05:14:09.433Z,8.50
2023-03-15T05:16:44.778Z,8.70
2023-03-15T05:19:41.031Z,8.50
2023-03-15T05:22:35.044Z,8.40
2023-03-15T05:25:21.772Z,8.30
2023-03-15T05:28:18.576Z,8.40
2023-03-15T05:31:09.175Z,8.40
2023-03-15T05:33:55.202Z,8.30
2023-03-15T05:36:39.608Z,8.40
2023-03-15T05:39:34.872Z,8.40
2023-03-15T05:42:14.272Z,8.50
2023-03-15T05:45:11.450Z,8.30
2023-03-15T05:48:08.391Z,8.40
2023-03-15T05:50:45.935Z,8.50
2023-03-15T05:53:23.947Z,8.60
2023-03-15T05:56:10.031Z,8.50
2023-03-15T05:58:59.847Z,8.30
2023-03-15T06:01:41.959Z,8.30
2023-03-15T06:04:24.991Z,8.40
2023-03-15T06:06:55.401Z,8.50
2023-03-15T06:09:23.345Z,8.60
2023-03-15T06:11:52.441Z,8.70
2023-03-15T06:14:20.245Z,8.60
2023-03-15T06:16:53.337Z,8.40
2023-03-15T06:19:22.000Z,8.20
2023-03-15T06:21:50.367Z,8.00
2023-03-15T06:24:26.480Z,8.00
2023-03-15T06:26:56.782Z,8.20
2023-03-15T06:29:25.630Z,8.10
2023-03-15T06:31:55.644Z,8.10
2023-03-15T06:34:25.360Z,8.10
2023-03-15T06:36:54.219Z,8.20
2023-03-15T06:39:22.269Z,8.10
2023-03-15T06:41:53.681Z,8.20
2023-03-15T06:44:23.476Z,8.30
2023-03-15T06:46:57.359Z,8.50
2023-03-15T06:49:25.196Z,8.60
2023-03-15T06:51:53.010Z,8.50
2023-03-15T06:54:23.460Z,8.60
2023-03-15T06:56:51.307Z,8.50
2023-03-15T06:59:19.126Z,8.50
2023-03-15T07:01:47.038Z,8.40
2023-03-15T07:04:14.797Z,8.60
2023-03-15T07:06:42.610Z,8.60
2023-03-15T07:09:10.482Z,8.60
2023-03-15T07:11:38.184Z,8.80
2023-03-15T07:14:06.239Z,9.00
2023-03-15T07:16:34.039Z,9.20
2023-03-15T07:19:02.238Z,9.40
2023-03-15T07:21:29.947Z,9.60
2023-03-15T07:23:57.733Z,9.70
2023-03-15T07:26:25.409Z,9.90
2023-03-15T07:28:53.092Z,10.10
2023-03-15T07:31:20.832Z,10.20
2023-03-15T07:33:48.614Z,10.30
2023-03-15T07:36:16.519Z,10.50
2023-03-15T07:38:44.436Z,10.60
2023-03-15T07:41:12.274Z,10.70
2023-03-15T07:43:46.634Z,10.90
2023-03-15T07:46:18.385Z,11.00
2023-03-15T07:48:46.688Z,11.10
2023-03-15T07:51:14.504Z,11.20
2023-03-15T07:53:42.240Z,11.40
2023-03-15T07:56:10.008Z,11.60
2023-03-15T07:58:37.703Z,11.70
2023-03-15T08:01:05.735Z,11.90
2023-03-15T08:03:33.546Z,12.00
2023-03-15T08:06:01.313Z,12.00
2023-03-15T08:08:29.108Z,12.10
2023-03-15T08:10:57.157Z,12.20
2023-03-15T08:13:25.009Z,12.30
2023-03-15T08:15:52.826Z,12.50
2023-03-15T08:18:20.577Z,12.50
2023-03-15T08:20:48.463Z,12.50
2023-03-15T08:23:16.786Z,12.60
2023-03-15T08:25:45.385Z,12.70
2023-03-15T08:28:13.333Z,12.90
2023-03-15T08:30:41.491Z,13.00
2023-03-15T08:33:09.628Z,13.20
2023-03-15T08:35:37.562Z,13.40
2023-03-15T08:38:05.310Z,13.60
2023-03-15T08:40:33.345Z,13.90
2023-03-15T08:43:01.112Z,14.00
2023-03-15T08:45:28.914Z,14.20
2023-03-15T08:48:00.882Z,14.30
2023-03-15T08:50:31.962Z,14.60
2023-03-15T08:52:59.837Z,14.80
2023-03-15T08:55:27.551Z,15.00
2023-03-15T08:57:55.422Z,15.20
2023-03-15T09:00:23.392Z,15.30
2023-03-15T09:02:54.388Z,15.40
2023-03-15T09:05:24.029Z,15.40
2023-03-15T09:07:53.320Z,15.20
2023-03-15T09:10:22.426Z,15.00
2023-03-15T09:12:54.020Z,14.90
2023-03-15T09:15:22.150Z,14.80
2023-03-15T09:17:53.622Z,14.60
2023-03-15T09:20:23.188Z,14.70
2023-03-15T09:22:53.688Z,14.50
2023-03-15T09:25:22.625Z,14.50
2023-03-15T09:27:51.335Z,14.30
2023-03-15T09:30:20.044Z,14.30
2023-03-15T09:32:48.274Z,14.30
2023-03-15T09:35:18.857Z,14.40
2023-03-15T09:37:47.810Z,14.50
2023-03-15T09:40:24.429Z,14.60
2023-03-15T09:43:07.810Z,14.50
2023-03-15T09:45:51.028Z,14.40
2023-03-15T09:48:27.940Z,14.40
2023-03-15T09:51:09.669Z,14.30
2023-03-15T09:53:43.672Z,14.40
2023-03-15T09:56:24.411Z,14.30
2023-03-15T09:58:58.016Z,14.20
2023-03-15T10:01:31.523Z,14.10
2023-03-15T10:04:23.832Z,14.10
2023-03-15T10:06:57.601Z,14.00
2023-03-15T10:09:28.214Z,13.90
2023-03-15T10:12:05.233Z,13.90
2023-03-15T10:15:03.898Z,14.00
2023-03-15T10:17:59.262Z,14.20
2023-03-15T10:20:34.404Z,14.30
2023-03-15T10:23:36.673Z,14.50
2023-03-15T10:26:08.599Z,14.50
2023-03-15T10:28:38.158Z,14.70
2023-03-15T10:31:22.870Z,14.90
2023-03-15T10:33:57.935Z,15.00
2023-03-15T10:36:26.311Z,15.30
2023-03-15T10:38:54.059Z,15.50
2023-03-15T10:41:41.569Z,15.60
2023-03-15T10:44:17.212Z,15.60
2023-03-15T10:47:23.165Z,15.90
2023-03-15T10:49:58.088Z,16.20
2023-03-15T10:52:39.965Z,16.50
2023-03-15T10:55:14.394Z,16.70
2023-03-15T10:57:53.392Z,16.70
2023-03-15T11:00:31.902Z,16.60
2023-03-15T11:03:23.799Z,16.50
2023-03-15T11:05:56.428Z,16.50
2023-03-15T11:08:44.493Z,16.40
2023-03-15T11:11:12.293Z,16.20
2023-03-15T11:13:42.132Z,15.40
2023-03-15T11:16:13.089Z,14.70
2023-03-15T11:18:48.911Z,14.60
2023-03-15T11:21:19.840Z,14.50
2023-03-15T11:23:50.383Z,14.30
2023-03-15T11:26:39.433Z,13.80
2023-03-15T11:29:30.109Z,13.40
2023-03-15T11:32:05.596Z,13.20
2023-03-15T11:34:58.392Z,12.80
2023-03-15T11:37:31.956Z,12.60
2023-03-15T11:40:18.278Z,12.50
2023-03-15T11:43:02.265Z,12.50
2023-03-15T11:45:37.499Z,12.50
2023-03-15T11:48:43.148Z,12.40
2023-03-15T11:51:12.961Z,12.40
2023-03-15T11:54:00.807Z,12.30
2023-03-15T11:56:43.491Z,12.30
2023-03-15T11:59:13.316Z,12.20
2023-03-15T12:01:54.936Z,12.10
2023-03-15T12:04:25.759Z,12.50
2023-03-15T12:06:58.282Z,12.90
2023-03-15T12:09:37.753Z,13.30
2023-03-15T12:12:27.148Z,13.70
2023-03-15T12:15:26.686Z,13.80
2023-03-15T12:17:59.913Z,14.00
2023-03-15T12:21:01.560Z,14.30
2023-03-15T12:23:37.138Z,14.50
2023-03-15T12:26:07.506Z,14.60
2023-03-15T12:28:37.838Z,14.70
2023-03-15T12:31:09.712Z,15.00
2023-03-15T12:33:58.548Z,15.20
2023-03-15T12:36:39.454Z,15.20
2023-03-15T12:39:16.100Z,15.20
2023-03-15T12:41:47.112Z,15.40
2023-03-15T12:44:43.422Z,15.40
2023-03-15T12:47:12.809Z,15.50
2023-03-15T12:49:46.353Z,15.40
2023-03-15T12:52:17.110Z,15.60
2023-03-15T12:54:50.132Z,15.50
2023-03-15T12:57:37.766Z,15.70
2023-03-15T13:00:15.926Z,15.80
2023-03-15T13:03:22.594Z,15.90
2023-03-15T13:06:14.229Z,16.10
2023-03-15T13:08:49.159Z,16.10
2023-03-15T13:11:44.136Z,16.10
2023-03-15T13:14:30.834Z,15.90
2023-03-15T13:17:06.976Z,16.10
2023-03-15T13:19:43.526Z,16.00
2023-03-15T13:22:55.049Z,16.20
2023-03-15T13:25:35.724Z,16.60
2023-03-15T13:28:37.318Z,16.70
2023-03-15T13:31:34.838Z,16.70
2023-03-15T13:34:33.171Z,16.50
2023-03-15T13:37:02.383Z,16.60
2023-03-15T13:39:32.849Z,16.40
2023-03-15T13:42:06.161Z,16.50
2023-03-15T13:44:34.329Z,16.60
2023-03-15T13:47:02.280Z,16.90
2023-03-15T13:49:34.035Z,16.80
2023-03-15T13:52:12.318Z,16.90
2023-03-15T13:54:41.310Z,17.00
2023-03-15T13:57:16.445Z,17.00
2023-03-15T13:59:52.834Z,17.00
2023-03-15T14:02:27.112Z,16.70
2023-03-15T14:05:05.458Z,16.80
2023-03-15T14:07:40.776Z,16.90
2023-03-15T14:10:34.578Z,16.90
2023-03-15T14:13:23.164Z,17.10
2023-03-15T14:15:56.392Z,17.10
2023-03-15T14:18:26.678Z,17.30
2023-03-15T14:21:01.006Z,17.30
2023-03-15T14:23:30.777Z,17.40
2023-03-15T14:26:03.702Z,17.20
2023-03-15T14:28:32.601Z,17.10
2023-03-15T14:31:02.532Z,17.30
2023-03-15T14:33:39.753Z,17.30
2023-03-15T14:36:22.832Z,17.20
2023-03-15T14:38:55.085Z,17.00
2023-03-15T14:41:31.469Z,16.80
2023-03-15T14:44:05.911Z,16.60
2023-03-15T14:46:33.796Z,16.50
2023-03-15T14:49:01.738Z,16.40
2023-03-15T14:51:29.885Z,16.30
2023-03-15T14:53:59.236Z,16.30
2023-03-15T14:56:27.128Z,16.30
2023-03-15T14:58:54.858Z,16.30
2023-03-15T15:01:27.287Z,16.30
2023-03-15T15:03:59.893Z,16.10
2023-03-15T15:06:29.322Z,16.10
2023-03-15T15:08:58.966Z,16.10
2023-03-15T15:11:27.527Z,15.90
2023-03-15T15:13:55.461Z,15.80
2023-03-15T15:16:23.495Z,15.60
2023-03-15T15:18:51.336Z,15.60
2023-03-15T15:21:22.423Z,15.40
2023-03-15T15:23:58.372Z,15.30
2023-03-15T15:26:29.191Z,15.30
2023-03-15T15:28:57.679Z,15.20
2023-03-15T15:31:27.434Z,15.10
2023-03-15T15:33:57.070Z,15.10
2023-03-15T15:36:34.516Z,15.10
2023-03-15T15:39:06.928Z,15.30
2023-03-15T15:41:36.560Z,15.30
2023-03-15T15:44:04.996Z,15.30
2023-03-15T15:46:33.117Z,15.30
2023-03-15T15:49:00.850Z,15.20
2023-03-15T15:51:31.980Z,15.00
2023-03-15T15:54:01.532Z,15.00
2023-03-15T15:56:40.364Z,14.90
2023-03-15T15:59:13.595Z,15.00
2023-03-15T16:01:56.617Z,14.90
2023-03-15T16:04:27.735Z,14.80
2023-03-15T16:06:59.360Z,14.60
2023-03-15T16:09:30.182Z,14.60
2023-03-15T16:11:58.888Z,14.60
2023-03-15T16:14:26.935Z,14.60
2023-03-15T16:16:54.784Z,14.60
2023-03-15T16:19:22.564Z,14.50
2023-03-15T16:21:54.534Z,14.40
2023-03-15T16:24:35.971Z,14.40
2023-03-15T16:27:06.488Z,14.40
2023-03-15T16:29:50.235Z,14.30
2023-03-15T16:32:29.802Z,14.20
2023-03-15T16:35:15.715Z,14.10
2023-03-15T16:37:46.293Z,14.10
2023-03-15T16:40:38.027Z,14.10
2023-03-15T16:43:08.986Z,14.10
2023-03-15T16:45:37.020Z,14.00
2023-03-15T16:48:05.417Z,14.10
2023-03-15T16:50:34.560Z,14.10
2023-03-15T16:53:07.222Z,14.10
2023-03-15T16:55:35.463Z,14.20
2023-03-15T16:58:11.636Z,14.10
2023-03-15T17:00:39.285Z,14.00
2023-03-15T17:03:07.839Z,14.00
2023-03-15T17:05:35.770Z,14.00
2023-03-15T17:08:04.574Z,14.00
2023-03-15T17:10:32.653Z,13.90
2023-03-15T17:13:02.311Z,13.80
2023-03-15T17:15:30.839Z,13.80
2023-03-15T17:17:58.762Z,13.70
2023-03-15T17:20:28.688Z,13.70
2023-03-15T17:23:04.432Z,13.70
2023-03-15T17:25:33.956Z,13.60
2023-03-15T17:28:01.748Z,13.60
2023-03-15T17:30:32.080Z,13.60
2023-03-15T17:33:00.794Z,13.60
2023-03-15T17:35:34.040Z,13.50
2023-03-15T17:38:04.318Z,13.40
2023-03-15T17:40:35.151Z,13.30
2023-03-15T17:43:04.338Z,13.30
2023-03-15T17:45:33.808Z,13.20
2023-03-15T17:48:02.514Z,13.20
2023-03-15T17:50:32.664Z,13.10
2023-03-15T17:53:07.220Z,13.10
2023-03-15T17:55:35.178Z,13.00
2023-03-15T17:58:04.243Z,12.90
2023-03-15T18:00:32.849Z,12.90
2023-03-15T18:03:01.275Z,12.90
2023-03-15T18:05:29.959Z,12.90
2023-03-15T18:08:00.076Z,12.80
2023-03-15T18:10:41.730Z,12.80
2023-03-15T18:13:14.314Z,12.80
2023-03-15T18:15:42.099Z,12.90
2023-03-15T18:18:10.195Z,12.80
2023-03-15T18:20:38.437Z,12.70
2023-03-15T18:23:06.303Z,12.60
2023-03-15T18:25:35.231Z,12.50
2023-03-15T18:28:03.366Z,12.40
2023-03-15T18:30:31.956Z,12.30
2023-03-15T18:32:59.993Z,12.30
2023-03-15T18:35:31.078Z,12.20
2023-03-15T18:37:59.089Z,11.90
2023-03-15T18:40:29.687Z,11.80
2023-03-15T18:42:58.112Z,11.70
2023-03-15T18:45:29.746Z,11.90
2023-03-15T18:47:59.932Z,12.10
2023-03-15T18:50:28.950Z,12.10
2023-03-15T18:52:57.331Z,12.00
2023-03-15T18:55:25.433Z,11.80
2023-03-15T18:57:55.434Z,11.70
2023-03-15T19:00:27.097Z,11.60
2023-03-15T19:02:58.998Z,11.70
2023-03-15T19:05:28.987Z,11.70
2023-03-15T19:07:57.122Z,11.80
2023-03-15T19:10:25.974Z,11.80
2023-03-15T19:12:54.048Z,11.80
2023-03-15T19:15:23.048Z,11.60
2023-03-15T19:17:54.525Z,11.50
2023-03-15T19:20:23.446Z,11.30
2023-03-15T19:22:52.650Z,11.10
2023-03-15T19:25:21.056Z,11.20
2023-03-15T19:27:49.194Z,11.20
2023-03-15T19:30:21.108Z,11.10
2023-03-15T19:32:50.382Z,11.00
2023-03-15T19:35:20.281Z,10.80
2023-03-15T19:37:49.200Z,10.90
2023-03-15T19:40:17.773Z,10.90
2023-03-15T19:42:46.735Z,10.90
2023-03-15T19:45:14.672Z,10.90
2023-03-15T19:47:42.404Z,11.00
2023-03-15T19:50:13.011Z,11.10
2023-03-15T19:52:46.190Z,11.00
2023-03-15T19:55:20.007Z,10.90
2023-03-15T19:57:48.224Z,10.90
2023-03-15T20:00:19.434Z,10.90
2023-03-15T20:02:47.878Z,10.80
2023-03-15T20:05:18.627Z,10.70
2023-03-15T20:07:47.453Z,10.40
2023-03-15T20:10:15.671Z,10.60
2023-03-15T20:12:45.575Z,10.70
2023-03-15T20:15:16.974Z,10.60
2023-03-15T20:17:45.428Z,10.60
2023-03-15T20:20:14.039Z,10.60
2023-03-15T20:22:44.133Z,10.30
2023-03-15T20:25:18.011Z,10.20
2023-03-15T20:27:45.872Z,10.00
2023-03-15T20:30:15.540Z,10.00
2023-03-15T20:32:43.674Z,10.10
2023-03-15T20:35:12.260Z,10.20
2023-03-15T20:37:41.894Z,10.00
2023-03-15T20:40:14.663Z,9.90
2023-03-15T20:42:43.394Z,9.90
2023-03-15T20:45:13.169Z,9.90
2023-03-15T20:47:41.676Z,10.00
2023-03-15T20:50:11.172Z,10.00
2023-03-15T20:52:39.032Z,10.10
2023-03-15T20:55:08.129Z,10.30
2023-03-15T20:57:37.117Z,10.30
2023-03-15T21:00:18.284Z,10.40
2023-03-15T21:02:47.937Z,10.40
2023-03-15T21:05:16.858Z,10.30
2023-03-15T21:07:44.830Z,10.20
2023-03-15T21:10:16.313Z,10.00
2023-03-15T21:12:44.905Z,9.90
2023-03-15T21:15:18.457Z,9.80
2023-03-15T21:17:50.166Z,9.60
2023-03-15T21:20:18.896Z,9.50
2023-03-15T21:22:47.937Z,9.40
2023-03-15T21:25:17.135Z,9.10
2023-03-15T21:27:46.230Z,9.00
2023-03-15T21:30:14.667Z,9.10
2023-03-15T21:32:44.181Z,9.30
2023-03-15T21:35:14.172Z,9.40
2023-03-15T21:37:45.566Z,9.40
2023-03-15T21:40:14.686Z,9.20
2023-03-15T21:42:43.806Z,8.90
2023-03-15T21:45:12.936Z,8.90
2023-03-15T21:47:42.289Z,8.90
2023-03-15T21:50:12.218Z,9.00
2023-03-15T21:52:40.465Z,8.90
2023-03-15T21:55:09.504Z,8.60
2023-03-15T21:57:37.542Z,8.60
2023-03-15T22:00:11.702Z,8.50
2023-03-15T22:02:39.648Z,8.40
2023-03-15T22:05:07.389Z,8.40
2023-03-15T22:07:35.344Z,8.60
2023-03-15T22:10:03.759Z,8.80
2023-03-15T22:12:31.473Z,8.80
2023-03-15T22:15:05.434Z,8.70
2023-03-15T22:17:34.131Z,8.50
2023-03-15T22:20:02.331Z,8.60
2023-03-15T22:22:30.546Z,8.70
2023-03-15T22:24:58.311Z,8.80
2023-03-15T22:27:26.058Z,8.70
2023-03-15T22:29:53.890Z,8.70
2023-03-15T22:32:21.707Z,8.70
2023-03-15T22:34:49.371Z,8.70
2023-03-15T22:37:17.139Z,8.70
2023-03-15T22:39:45.474Z,8.70
2023-03-15T22:42:13.309Z,8.90
2023-03-15T22:44:41.016Z,8.90
2023-03-15T22:47:09.040Z,9.00
2023-03-15T22:49:36.709Z,9.00
2023-03-15T22:52:04.555Z,9.00
2023-03-15T22:54:32.306Z,9.00
2023-03-15T22:56:59.969Z,9.00
2023-03-15T22:59:29.211Z,8.90
2023-03-15T23:01:57.378Z,8.90
2023-03-15T23:04:25.236Z,9.00
2023-03-15T23:06:53.427Z,9.00
2023-03-15T23:09:22.013Z,9.00
2023-03-15T23:11:50.101Z,9.00
2023-03-15T23:14:17.940Z,9.00
2023-03-15T23:16:45.632Z,9.00
2023-03-15T23:19:13.704Z,9.00
2023-03-15T23:21:41.414Z,8.90
2023-03-15T23:24:09.329Z,8.80
2023-03-15T23:26:37.411Z,8.80
2023-03-15T23:29:11.052Z,8.80
2023-03-15T23:31:39.941Z,8.80
2023-03-15T23:34:08.290Z,8.80
2023-03-15T23:36:36.235Z,8.70
2023-03-15T23:39:04.361Z,8.70
2023-03-15T23:41:32.074Z,8.70
2023-03-15T23:43:59.889Z,8.60
2023-03-15T23:46:27.829Z,8.60
2023-03-15T23:48:55.642Z,8.40
2023-03-15T23:51:23.392Z,8.20
2023-03-15T23:53:51.131Z,8.10
2023-03-15T23:56:18.733Z,8.20
2023-03-15T23:58:46.444Z,8.20
